JLY1207 SBSP-SBMG
Flight info
| Callsign | JLY1207 |
|---|---|
| Flight time | N/A |
| Altitude | 36000 |
| Route | EGEVA UZ58 LON |
| Aircraft | B737/M-SDFGIKRWY/LB1 |
Departure
| Time | N/A |
|---|---|
| Airport | Congonhas–Deputado Freitas Nobre Airport (SBSP) |
Arrival
| Time | 2026-05-04 20:59 |
|---|---|
| Airport | Regional de Maringá - Sílvio Name Júnior Airport (SBMG) |
| Time | Latitude | Longitude | Altitude | Speed | Heading |
|---|---|---|---|---|---|
| 2026-05-04 20:08 | -23.60311 | -47.28505 | 20056 ft | 375 kts | 290° |
| 2026-05-04 20:08 | -23.59298 | -47.31107 | 20644 ft | 379 kts | 290° |
| 2026-05-04 20:09 | -23.58259 | -47.33778 | 21244 ft | 383 kts | 290° |
| 2026-05-04 20:09 | -23.57212 | -47.36465 | 21829 ft | 386 kts | 290° |
| 2026-05-04 20:09 | -23.56167 | -47.39147 | 22361 ft | 389 kts | 289° |
| 2026-05-04 20:09 | -23.55101 | -47.41882 | 22904 ft | 393 kts | 289° |
| 2026-05-04 20:10 | -23.54029 | -47.44633 | 23489 ft | 395 kts | 289° |
| 2026-05-04 20:10 | -23.52962 | -47.47370 | 24049 ft | 397 kts | 288° |
| 2026-05-04 20:10 | -23.51978 | -47.50161 | 24605 ft | 397 kts | 285° |
| 2026-05-04 20:10 | -23.51122 | -47.53019 | 25153 ft | 398 kts | 283° |
| 2026-05-04 20:11 | -23.50331 | -47.55896 | 25703 ft | 398 kts | 282° |
| 2026-05-04 20:11 | -23.49556 | -47.58787 | 26185 ft | 401 kts | 282° |
| 2026-05-04 20:11 | -23.48774 | -47.61699 | 26703 ft | 402 kts | 282° |
| 2026-05-04 20:11 | -23.47979 | -47.64623 | 27153 ft | 405 kts | 282° |
| 2026-05-04 20:12 | -23.47167 | -47.67572 | 27630 ft | 407 kts | 283° |
| 2026-05-04 20:12 | -23.46354 | -47.70501 | 28077 ft | 409 kts | 283° |
| 2026-05-04 20:12 | -23.45516 | -47.73475 | 28557 ft | 410 kts | 283° |
| 2026-05-04 20:12 | -23.44590 | -47.76421 | 28971 ft | 415 kts | 287° |
| 2026-05-04 20:13 | -23.43432 | -47.79320 | 29491 ft | 417 kts | 290° |
| 2026-05-04 20:13 | -23.42131 | -47.82157 | 29860 ft | 422 kts | 292° |
| 2026-05-04 20:13 | -23.40775 | -47.84935 | 30280 ft | 423 kts | 293° |
| 2026-05-04 20:13 | -23.39354 | -47.87783 | 30657 ft | 426 kts | 293° |
| 2026-05-04 20:14 | -23.37934 | -47.90619 | 31011 ft | 428 kts | 293° |
| 2026-05-04 20:14 | -23.36525 | -47.93435 | 31527 ft | 426 kts | 293° |
| 2026-05-04 20:14 | -23.35131 | -47.96226 | 32151 ft | 421 kts | 292° |
| 2026-05-04 20:14 | -23.33733 | -47.99035 | 32669 ft | 419 kts | 292° |
| 2026-05-04 20:15 | -23.32357 | -48.01813 | 33100 ft | 418 kts | 292° |
| 2026-05-04 20:15 | -23.30995 | -48.04572 | 33539 ft | 417 kts | 292° |
| 2026-05-04 20:15 | -23.29637 | -48.07346 | 33969 ft | 415 kts | 291° |
| 2026-05-04 20:15 | -23.28424 | -48.10161 | 34373 ft | 411 kts | 287° |
| 2026-05-04 20:16 | -23.27389 | -48.13036 | 34846 ft | 407 kts | 284° |
| 2026-05-04 20:16 | -23.26445 | -48.15948 | 35291 ft | 404 kts | 283° |
| 2026-05-04 20:16 | -23.25567 | -48.18792 | 35697 ft | 402 kts | 282° |
| 2026-05-04 20:16 | -23.24684 | -48.21700 | 36025 ft | 402 kts | 282° |
| 2026-05-04 20:17 | -23.23817 | -48.24558 | 36123 ft | 404 kts | 282° |
| 2026-05-04 20:17 | -23.22036 | -48.30351 | 36124 ft | 401 kts | 283° |
| 2026-05-04 20:18 | -23.20263 | -48.36053 | 36130 ft | 401 kts | 283° |
| 2026-05-04 20:18 | -23.18464 | -48.41799 | 36132 ft | 402 kts | 283° |
| 2026-05-04 20:19 | -23.16659 | -48.47546 | 36135 ft | 401 kts | 283° |
| 2026-05-04 20:19 | -23.14976 | -48.53289 | 36140 ft | 398 kts | 278° |
| 2026-05-04 20:20 | -23.14344 | -48.59126 | 36145 ft | 390 kts | 266° |
| 2026-05-04 20:20 | -23.14652 | -48.65022 | 36142 ft | 389 kts | 262° |
| 2026-05-04 20:21 | -23.15178 | -48.70786 | 36143 ft | 388 kts | 261° |
| 2026-05-04 20:21 | -23.15977 | -48.79522 | 36140 ft | 388 kts | 262° |
| 2026-05-04 20:22 | -23.16484 | -48.85344 | 36136 ft | 388 kts | 262° |
| 2026-05-04 20:22 | -23.16982 | -48.91173 | 36138 ft | 388 kts | 262° |
| 2026-05-04 20:23 | -23.17476 | -48.97024 | 36132 ft | 388 kts | 262° |
| 2026-05-04 20:23 | -23.17963 | -49.02813 | 36132 ft | 388 kts | 261° |
| 2026-05-04 20:24 | -23.18451 | -49.08651 | 36125 ft | 388 kts | 262° |
| 2026-05-04 20:24 | -23.18934 | -49.14459 | 36126 ft | 387 kts | 262° |
| 2026-05-04 20:25 | -23.19436 | -49.20305 | 36121 ft | 389 kts | 261° |
| 2026-05-04 20:25 | -23.19971 | -49.26121 | 36117 ft | 387 kts | 261° |
| 2026-05-04 20:26 | -23.20507 | -49.31926 | 36108 ft | 387 kts | 261° |
| 2026-05-04 20:26 | -23.21040 | -49.37750 | 36111 ft | 388 kts | 261° |
| 2026-05-04 20:27 | -23.21526 | -49.43562 | 36121 ft | 388 kts | 262° |
| 2026-05-04 20:27 | -23.21956 | -49.49378 | 36126 ft | 389 kts | 262° |
| 2026-05-04 20:28 | -23.22382 | -49.55239 | 36127 ft | 388 kts | 262° |
| 2026-05-04 20:28 | -23.22811 | -49.61063 | 36121 ft | 388 kts | 262° |
| 2026-05-04 20:29 | -23.23240 | -49.66879 | 36121 ft | 388 kts | 262° |
| 2026-05-04 20:29 | -23.23671 | -49.72729 | 36120 ft | 388 kts | 262° |
| 2026-05-04 20:30 | -23.24115 | -49.78564 | 36116 ft | 387 kts | 261° |
| 2026-05-04 20:30 | -23.24578 | -49.84386 | 36112 ft | 387 kts | 262° |
| 2026-05-04 20:31 | -23.25041 | -49.90191 | 36111 ft | 388 kts | 262° |
| 2026-05-04 20:31 | -23.25501 | -49.96013 | 36108 ft | 387 kts | 261° |
| 2026-05-04 20:32 | -23.25958 | -50.01865 | 36104 ft | 387 kts | 262° |
| 2026-05-04 20:32 | -23.26408 | -50.07676 | 36100 ft | 387 kts | 261° |
| 2026-05-04 20:33 | -23.26852 | -50.13454 | 36098 ft | 386 kts | 261° |
| 2026-05-04 20:33 | -23.27303 | -50.19316 | 36097 ft | 388 kts | 262° |
| 2026-05-04 20:34 | -23.27746 | -50.25096 | 36095 ft | 387 kts | 261° |
| 2026-05-04 20:34 | -23.28192 | -50.30947 | 36092 ft | 387 kts | 262° |
| 2026-05-04 20:35 | -23.28631 | -50.36761 | 36092 ft | 387 kts | 262° |
| 2026-05-04 20:35 | -23.29066 | -50.42576 | 36092 ft | 387 kts | 261° |
| 2026-05-04 20:36 | -23.29491 | -50.48385 | 35920 ft | 386 kts | 262° |
| 2026-05-04 20:36 | -23.29700 | -50.51282 | 35461 ft | 381 kts | 262° |
| 2026-05-04 20:36 | -23.29905 | -50.54136 | 34864 ft | 379 kts | 262° |
| 2026-05-04 20:37 | -23.30111 | -50.56970 | 34209 ft | 379 kts | 262° |
| 2026-05-04 20:37 | -23.30317 | -50.59802 | 33538 ft | 380 kts | 262° |
| 2026-05-04 20:37 | -23.30524 | -50.62655 | 33010 ft | 379 kts | 262° |
| 2026-05-04 20:37 | -23.30735 | -50.65554 | 32600 ft | 390 kts | 262° |
| 2026-05-04 20:38 | -23.30949 | -50.68491 | 32122 ft | 394 kts | 263° |
| 2026-05-04 20:38 | -23.31159 | -50.71428 | 31634 ft | 389 kts | 263° |
| 2026-05-04 20:38 | -23.31365 | -50.74346 | 31150 ft | 382 kts | 263° |
| 2026-05-04 20:38 | -23.31565 | -50.77190 | 30681 ft | 376 kts | 263° |
| 2026-05-04 20:39 | -23.31763 | -50.79993 | 30213 ft | 371 kts | 263° |
| 2026-05-04 20:39 | -23.31959 | -50.82770 | 29748 ft | 369 kts | 263° |
| 2026-05-04 20:39 | -23.32158 | -50.85571 | 29269 ft | 375 kts | 263° |
| 2026-05-04 20:39 | -23.32360 | -50.88397 | 28777 ft | 375 kts | 263° |
| 2026-05-04 20:40 | -23.32555 | -50.91182 | 28303 ft | 369 kts | 263° |
| 2026-05-04 20:40 | -23.32749 | -50.93955 | 27827 ft | 364 kts | 264° |
| 2026-05-04 20:40 | -23.32937 | -50.96653 | 27372 ft | 362 kts | 263° |
| 2026-05-04 20:40 | -23.33130 | -50.99406 | 26905 ft | 370 kts | 263° |
| 2026-05-04 20:41 | -23.33326 | -51.02202 | 26416 ft | 372 kts | 263° |
| 2026-05-04 20:41 | -23.33522 | -51.05016 | 25924 ft | 367 kts | 263° |
| 2026-05-04 20:41 | -23.33709 | -51.07731 | 25450 ft | 363 kts | 263° |
| 2026-05-04 20:41 | -23.33961 | -51.10484 | 24794 ft | 362 kts | 260° |
| 2026-05-04 20:42 | -23.34415 | -51.13141 | 24271 ft | 359 kts | 256° |
| 2026-05-04 20:42 | -23.35016 | -51.15778 | 24019 ft | 357 kts | 254° |
| 2026-05-04 20:42 | -23.35663 | -51.18361 | 23763 ft | 360 kts | 253° |
| 2026-05-04 20:42 | -23.36346 | -51.21017 | 23501 ft | 361 kts | 253° |
| 2026-05-04 20:43 | -23.37007 | -51.23591 | 23251 ft | 359 kts | 253° |
| 2026-05-04 20:43 | -23.37681 | -51.26237 | 22988 ft | 358 kts | 253° |
| 2026-05-04 20:43 | -23.38339 | -51.28839 | 22740 ft | 359 kts | 253° |
| 2026-05-04 20:43 | -23.38994 | -51.31447 | 22487 ft | 357 kts | 253° |
| 2026-05-04 20:44 | -23.39650 | -51.34069 | 22229 ft | 356 kts | 253° |
| 2026-05-04 20:44 | -23.40291 | -51.36642 | 21978 ft | 355 kts | 253° |
| 2026-05-04 20:44 | -23.40941 | -51.39256 | 21724 ft | 355 kts | 253° |
| 2026-05-04 20:44 | -23.41576 | -51.41814 | 21479 ft | 355 kts | 253° |
| 2026-05-04 20:45 | -23.42222 | -51.44420 | 21227 ft | 353 kts | 253° |
| 2026-05-04 20:45 | -23.42859 | -51.46989 | 20973 ft | 350 kts | 253° |
| 2026-05-04 20:45 | -23.43483 | -51.49514 | 20589 ft | 345 kts | 253° |
| 2026-05-04 20:45 | -23.44106 | -51.52032 | 20097 ft | 342 kts | 253° |
| 2026-05-04 20:46 | -23.44719 | -51.54512 | 19575 ft | 341 kts | 253° |
| 2026-05-04 20:46 | -23.45337 | -51.57012 | 19041 ft | 340 kts | 253° |
| 2026-05-04 20:46 | -23.45946 | -51.59480 | 18439 ft | 341 kts | 253° |
| 2026-05-04 20:46 | -23.46561 | -51.61971 | 17835 ft | 342 kts | 253° |
| 2026-05-04 20:47 | -23.47175 | -51.64464 | 17302 ft | 341 kts | 253° |
| 2026-05-04 20:47 | -23.47790 | -51.66963 | 16835 ft | 338 kts | 254° |
| 2026-05-04 20:47 | -23.48389 | -51.69397 | 16371 ft | 335 kts | 254° |
| 2026-05-04 20:47 | -23.48981 | -51.71806 | 15900 ft | 333 kts | 255° |
| 2026-05-04 20:48 | -23.49584 | -51.74259 | 15410 ft | 332 kts | 255° |
| 2026-05-04 20:48 | -23.50174 | -51.76661 | 14964 ft | 329 kts | 255° |
| 2026-05-04 20:48 | -23.50760 | -51.79048 | 14511 ft | 326 kts | 255° |
| 2026-05-04 20:48 | -23.51341 | -51.81417 | 14019 ft | 325 kts | 256° |
| 2026-05-04 20:49 | -23.51921 | -51.83784 | 13558 ft | 323 kts | 256° |
| 2026-05-04 20:49 | -23.52498 | -51.86137 | 13119 ft | 320 kts | 256° |
| 2026-05-04 20:49 | -23.53065 | -51.88452 | 12866 ft | 311 kts | 256° |
| 2026-05-04 20:49 | -23.53608 | -51.90669 | 12728 ft | 299 kts | 256° |
| 2026-05-04 20:50 | -23.54140 | -51.92841 | 12608 ft | 287 kts | 257° |
| 2026-05-04 20:50 | -23.54643 | -51.94901 | 12373 ft | 281 kts | 257° |
| 2026-05-04 20:50 | -23.55145 | -51.96964 | 11961 ft | 282 kts | 257° |
| 2026-05-04 20:50 | -23.55650 | -51.99038 | 11480 ft | 281 kts | 257° |
| 2026-05-04 20:51 | -23.56149 | -52.01090 | 10995 ft | 280 kts | 257° |
| 2026-05-04 20:51 | -23.56643 | -52.03119 | 10499 ft | 279 kts | 257° |
| 2026-05-04 20:51 | -23.57143 | -52.05172 | 9984 ft | 279 kts | 257° |
| 2026-05-04 20:51 | -23.57634 | -52.07187 | 9509 ft | 278 kts | 257° |
| 2026-05-04 20:52 | -23.58129 | -52.09222 | 9024 ft | 277 kts | 257° |
| 2026-05-04 20:52 | -23.58620 | -52.11241 | 8548 ft | 276 kts | 258° |
| 2026-05-04 20:52 | -23.59113 | -52.13271 | 8073 ft | 275 kts | 258° |
| 2026-05-04 20:52 | -23.59601 | -52.15282 | 7637 ft | 273 kts | 258° |
| 2026-05-04 20:53 | -23.60006 | -52.17256 | 7448 ft | 258 kts | 265° |
| 2026-05-04 20:53 | -23.59989 | -52.19123 | 7294 ft | 236 kts | 288° |
| 2026-05-04 20:53 | -23.59222 | -52.20571 | 7047 ft | 219 kts | 317° |
| 2026-05-04 20:53 | -23.57982 | -52.21487 | 6680 ft | 213 kts | 335° |
| 2026-05-04 20:54 | -23.56593 | -52.21991 | 6305 ft | 209 kts | 352° |
| 2026-05-04 20:54 | -23.55149 | -52.21912 | 5998 ft | 203 kts | 9° |
| 2026-05-04 20:54 | -23.53783 | -52.21642 | 5723 ft | 197 kts | 9° |
| 2026-05-04 20:54 | -23.52481 | -52.21223 | 5416 ft | 196 kts | 30° |
| 2026-05-04 20:55 | -23.51631 | -52.20079 | 5130 ft | 198 kts | 63° |
| 2026-05-04 20:55 | -23.51173 | -52.18677 | 4851 ft | 197 kts | 69° |
| 2026-05-04 20:55 | -23.50796 | -52.17233 | 4549 ft | 197 kts | 72° |
| 2026-05-04 20:55 | -23.50463 | -52.15795 | 4247 ft | 196 kts | 73° |
| 2026-05-04 20:56 | -23.50160 | -52.14387 | 3947 ft | 186 kts | 74° |
| 2026-05-04 20:56 | -23.49884 | -52.13057 | 3617 ft | 178 kts | 75° |
| 2026-05-04 20:56 | -23.49626 | -52.11785 | 3345 ft | 167 kts | 75° |
| 2026-05-04 20:56 | -23.49386 | -52.10592 | 3126 ft | 156 kts | 75° |
| 2026-05-04 20:57 | -23.49166 | -52.09488 | 2876 ft | 145 kts | 75° |
| 2026-05-04 20:57 | -23.48942 | -52.08376 | 2250 ft | 160 kts | 75° |
| 2026-05-04 20:57 | -23.48760 | -52.07207 | 1858 ft | 158 kts | 80° |
| 2026-05-04 20:57 | -23.48632 | -52.06063 | 2105 ft | 151 kts | 76° |
| 2026-05-04 20:58 | -23.48382 | -52.04957 | 2066 ft | 155 kts | 72° |
| 2026-05-04 20:58 | -23.48096 | -52.03859 | 1943 ft | 148 kts | 72° |
| 2026-05-04 20:58 | -23.47842 | -52.02771 | 1778 ft | 148 kts | 75° |
| 2026-05-04 20:58 | -23.47668 | -52.01953 | 1778 ft | 61 kts | 79° |
| 2026-05-04 20:59 | -23.47639 | -52.01747 | 1778 ft | 22 kts | 91° |
| 2026-05-04 20:59 | -23.47667 | -52.01632 | 1778 ft | 23 kts | 118° |
| 2026-05-04 20:59 | -23.47704 | -52.01568 | 1778 ft | 0 kts | 123° |